sensor_id;sensor_type;location;lat;lon;timestamp;pressure;altitude;pressure_sealevel;temperature;humidity
78210;BME280;67485;48.816;9.930;2023-02-18T00:00:17;97656.13;;;10.38;84.04
78210;BME280;67485;48.816;9.930;2023-02-18T00:02:44;97654.41;;;10.37;84.25
78210;BME280;67485;48.816;9.930;2023-02-18T00:05:12;97647.44;;;10.33;84.21
78210;BME280;67485;48.816;9.930;2023-02-18T00:07:39;97657.88;;;10.36;84.46
78210;BME280;67485;48.816;9.930;2023-02-18T00:10:06;97663.13;;;10.36;83.96
78210;BME280;67485;48.816;9.930;2023-02-18T00:12:33;97653.47;;;10.40;83.71
78210;BME280;67485;48.816;9.930;2023-02-18T00:14:58;97650.91;;;10.38;83.90
78210;BME280;67485;48.816;9.930;2023-02-18T00:17:24;97649.19;;;10.31;83.81
78210;BME280;67485;48.816;9.930;2023-02-18T00:19:50;97648.28;;;10.38;83.50
78210;BME280;67485;48.816;9.930;2023-02-18T00:22:15;97639.50;;;10.41;83.12
78210;BME280;67485;48.816;9.930;2023-02-18T00:24:41;97645.59;;;10.41;83.29
78210;BME280;67485;48.816;9.930;2023-02-18T00:27:07;97636.88;;;10.41;82.82
78210;BME280;67485;48.816;9.930;2023-02-18T00:29:33;97641.25;;;10.38;83.11
78210;BME280;67485;48.816;9.930;2023-02-18T00:31:58;97629.91;;;10.35;82.89
78210;BME280;67485;48.816;9.930;2023-02-18T00:34:24;97631.69;;;10.36;82.91
78210;BME280;67485;48.816;9.930;2023-02-18T00:36:50;97620.31;;;10.35;82.55
78210;BME280;67485;48.816;9.930;2023-02-18T00:39:15;97628.13;;;10.40;82.33
78210;BME280;67485;48.816;9.930;2023-02-18T00:41:41;97619.41;;;10.41;82.12
78210;BME280;67485;48.816;9.930;2023-02-18T00:44:08;97622.06;;;10.36;82.08
78210;BME280;67485;48.816;9.930;2023-02-18T00:46:34;97619.44;;;10.38;81.74
78210;BME280;67485;48.816;9.930;2023-02-18T00:49:00;97615.09;;;10.37;81.90
78210;BME280;67485;48.816;9.930;2023-02-18T00:51:26;97615.91;;;10.39;81.68
78210;BME280;67485;48.816;9.930;2023-02-18T00:53:53;97616.78;;;10.41;81.33
78210;BME280;67485;48.816;9.930;2023-02-18T00:56:19;97624.63;;;10.41;81.63
78210;BME280;67485;48.816;9.930;2023-02-18T00:58:45;97625.47;;;10.45;81.32
78210;BME280;67485;48.816;9.930;2023-02-18T01:01:11;97622.00;;;10.43;80.94
78210;BME280;67485;48.816;9.930;2023-02-18T01:03:38;97608.84;;;10.47;81.24
78210;BME280;67485;48.816;9.930;2023-02-18T01:06:05;97621.06;;;10.45;80.61
78210;BME280;67485;48.816;9.930;2023-02-18T01:08:32;97618.44;;;10.48;80.83
78210;BME280;67485;48.816;9.930;2023-02-18T01:10:59;97614.06;;;10.50;80.81
78210;BME280;67485;48.816;9.930;2023-02-18T01:13:25;97624.56;;;10.47;80.57
78210;BME280;67485;48.816;9.930;2023-02-18T01:15:52;97635.09;;;10.44;80.64
78210;BME280;67485;48.816;9.930;2023-02-18T01:18:18;97632.47;;;10.44;80.94
78210;BME280;67485;48.816;9.930;2023-02-18T01:20:45;97639.41;;;10.47;80.95
78210;BME280;67485;48.816;9.930;2023-02-18T01:23:11;97621.06;;;10.48;80.53
78210;BME280;67485;48.816;9.930;2023-02-18T01:25:37;97627.19;;;10.46;80.71
78210;BME280;67485;48.816;9.930;2023-02-18T01:28:05;97622.88;;;10.43;80.97
78210;BME280;67485;48.816;9.930;2023-02-18T01:30:31;97612.34;;;10.46;80.47
78210;BME280;67485;48.816;9.930;2023-02-18T01:32:57;97618.41;;;10.50;80.37
78210;BME280;67485;48.816;9.930;2023-02-18T01:35:23;97614.06;;;10.47;80.69
78210;BME280;67485;48.816;9.930;2023-02-18T01:37:49;97623.72;;;10.44;80.94
78210;BME280;67485;48.816;9.930;2023-02-18T01:40:19;97626.34;;;10.44;80.78
78210;BME280;67485;48.816;9.930;2023-02-18T01:42:47;97624.63;;;10.44;81.37
78210;BME280;67485;48.816;9.930;2023-02-18T01:48:20;97618.59;;;10.36;81.33
78210;BME280;67485;48.816;9.930;2023-02-18T01:50:53;97625.59;;;10.32;81.56
78210;BME280;67485;48.816;9.930;2023-02-18T01:53:26;97623.81;;;10.34;81.33
78210;BME280;67485;48.816;9.930;2023-02-18T01:55:53;97619.44;;;10.35;81.18
78210;BME280;67485;48.816;9.930;2023-02-18T01:58:19;97619.50;;;10.32;81.73
78210;BME280;67485;48.816;9.930;2023-02-18T02:00:45;97608.16;;;10.30;81.24
78210;BME280;67485;48.816;9.930;2023-02-18T02:03:13;97619.44;;;10.36;81.69
78210;BME280;67485;48.816;9.930;2023-02-18T02:05:42;97615.09;;;10.34;81.29
78210;BME280;67485;48.816;9.930;2023-02-18T02:08:11;97616.00;;;10.33;81.70
78210;BME280;67485;48.816;9.930;2023-02-18T02:11:06;97619.50;;;10.32;81.25
78210;BME280;67485;48.816;9.930;2023-02-18T02:16:34;97589.78;;;10.36;80.87
78210;BME280;67485;48.816;9.930;2023-02-18T02:19:34;97596.72;;;10.38;80.71
78210;BME280;67485;48.816;9.930;2023-02-18T02:25:25;97594.09;;;10.38;80.31
78210;BME280;67485;48.816;9.930;2023-02-18T02:36:22;97588.97;;;10.29;81.00
78210;BME280;67485;48.816;9.930;2023-02-18T02:39:05;97583.72;;;10.29;80.94
78210;BME280;67485;48.816;9.930;2023-02-18T02:41:42;97591.56;;;10.31;80.90
78210;BME280;67485;48.816;9.930;2023-02-18T02:44:21;97575.84;;;10.31;80.51
78210;BME280;67485;48.816;9.930;2023-02-18T02:46:58;97575.84;;;10.31;80.35
78210;BME280;67485;48.816;9.930;2023-02-18T02:49:35;97584.56;;;10.33;80.32
78210;BME280;67485;48.816;9.930;2023-02-18T02:52:07;97571.44;;;10.31;80.58
78210;BME280;67485;48.816;9.930;2023-02-18T02:54:34;97577.56;;;10.32;80.32
78210;BME280;67485;48.816;9.930;2023-02-18T02:59:31;97560.13;;;10.31;80.05
78210;BME280;67485;48.816;9.930;2023-02-18T03:10:52;97548.75;;;10.30;79.95
78210;BME280;67485;48.816;9.930;2023-02-18T03:13:48;97554.88;;;10.31;79.99
78210;BME280;67485;48.816;9.930;2023-02-18T03:17:11;97551.38;;;10.32;80.17
78210;BME280;67485;48.816;9.930;2023-02-18T03:19:12;97553.13;;;10.33;79.99
78210;BME280;67485;48.816;9.930;2023-02-18T03:21:47;97559.28;;;10.27;80.19
78210;BME280;67485;48.816;9.930;2023-02-18T03:24:26;97552.31;;;10.26;80.21
78210;BME280;67485;48.816;9.930;2023-02-18T03:26:58;97545.31;;;10.28;80.09
78210;BME280;67485;48.816;9.930;2023-02-18T03:29:26;97551.47;;;10.26;79.80
78210;BME280;67485;48.816;9.930;2023-02-18T03:31:58;97552.22;;;10.32;79.57
78210;BME280;67485;48.816;9.930;2023-02-18T03:34:29;97552.28;;;10.28;80.04
78210;BME280;67485;48.816;9.930;2023-02-18T03:36:57;97552.28;;;10.29;79.58
78210;BME280;67485;48.816;9.930;2023-02-18T03:39:26;97546.16;;;10.29;79.59
78210;BME280;67485;48.816;9.930;2023-02-18T03:41:53;97553.13;;;10.33;79.26
78210;BME280;67485;48.816;9.930;2023-02-18T03:44:19;97547.00;;;10.32;78.98
78210;BME280;67485;48.816;9.930;2023-02-18T03:46:44;97550.47;;;10.34;79.04
78210;BME280;67485;48.816;9.930;2023-02-18T03:49:11;97542.63;;;10.33;79.11
78210;BME280;67485;48.816;9.930;2023-02-18T03:51:39;97538.34;;;10.26;79.26
78210;BME280;67485;48.816;9.930;2023-02-18T03:54:06;97548.78;;;10.29;79.23
78210;BME280;67485;48.816;9.930;2023-02-18T03:56:34;97556.63;;;10.32;79.07
78210;BME280;67485;48.816;9.930;2023-02-18T03:59:00;97557.53;;;10.29;79.12
78210;BME280;67485;48.816;9.930;2023-02-18T04:01:25;97555.81;;;10.27;79.17
78210;BME280;67485;48.816;9.930;2023-02-18T04:03:51;97557.53;;;10.28;79.45
78210;BME280;67485;48.816;9.930;2023-02-18T04:06:20;97557.56;;;10.25;79.23
78210;BME280;67485;48.816;9.930;2023-02-18T04:08:45;97556.69;;;10.26;79.35
78210;BME280;67485;48.816;9.930;2023-02-18T04:11:11;97558.38;;;10.30;78.81
78210;BME280;67485;48.816;9.930;2023-02-18T04:13:37;97552.22;;;10.32;78.85
78210;BME280;67485;48.816;9.930;2023-02-18T04:16:02;97560.13;;;10.31;78.94
78210;BME280;67485;48.816;9.930;2023-02-18T04:18:28;97558.44;;;10.27;78.89
78210;BME280;67485;48.816;9.930;2023-02-18T04:20:54;97551.47;;;10.26;78.79
78210;BME280;67485;48.816;9.930;2023-02-18T04:23:19;97547.97;;;10.23;79.14
78210;BME280;67485;48.816;9.930;2023-02-18T04:25:45;97542.72;;;10.27;78.99
78210;BME280;67485;48.816;9.930;2023-02-18T04:28:13;97540.94;;;10.29;78.66
78210;BME280;67485;48.816;9.930;2023-02-18T04:30:40;97537.41;;;10.31;78.56
78210;BME280;67485;48.816;9.930;2023-02-18T04:33:06;97538.28;;;10.32;78.28
78210;BME280;67485;48.816;9.930;2023-02-18T04:35:31;97544.41;;;10.31;78.58
78210;BME280;67485;48.816;9.930;2023-02-18T04:37:57;97547.88;;;10.31;78.63
78210;BME280;67485;48.816;9.930;2023-02-18T04:40:22;97535.69;;;10.29;78.11
78210;BME280;67485;48.816;9.930;2023-02-18T04:42:51;97535.66;;;10.32;77.82
78210;BME280;67485;48.816;9.930;2023-02-18T04:45:16;97533.91;;;10.31;77.97
78210;BME280;67485;48.816;9.930;2023-02-18T04:47:42;97524.28;;;10.31;78.08
78210;BME280;67485;48.816;9.930;2023-02-18T04:50:08;97523.38;;;10.37;77.27
78210;BME280;67485;48.816;9.930;2023-02-18T04:52:34;97530.34;;;10.35;77.34
78210;BME280;67485;48.816;9.930;2023-02-18T04:55:00;97531.25;;;10.35;77.53
78210;BME280;67485;48.816;9.930;2023-02-18T04:57:25;97528.69;;;10.31;77.60
78210;BME280;67485;48.816;9.930;2023-02-18T04:59:51;97525.22;;;10.29;78.03
78210;BME280;67485;48.816;9.930;2023-02-18T05:02:17;97532.16;;;10.33;77.36
78210;BME280;67485;48.816;9.930;2023-02-18T05:04:42;97534.88;;;10.27;78.09
78210;BME280;67485;48.816;9.930;2023-02-18T05:07:08;97535.69;;;10.29;77.76
78210;BME280;67485;48.816;9.930;2023-02-18T05:09:34;97546.16;;;10.29;77.37
78210;BME280;67485;48.816;9.930;2023-02-18T05:11:59;97544.44;;;10.29;77.31
78210;BME280;67485;48.816;9.930;2023-02-18T05:14:25;97545.34;;;10.27;77.44
78210;BME280;67485;48.816;9.930;2023-02-18T05:16:51;97547.91;;;10.30;76.82
78210;BME280;67485;48.816;9.930;2023-02-18T05:19:16;97541.75;;;10.32;76.41
78210;BME280;67485;48.816;9.930;2023-02-18T05:21:43;97555.78;;;10.28;76.75
78210;BME280;67485;48.816;9.930;2023-02-18T05:24:08;97543.50;;;10.30;76.45
78210;BME280;67485;48.816;9.930;2023-02-18T05:26:34;97542.63;;;10.31;76.76
78210;BME280;67485;48.816;9.930;2023-02-18T05:29:00;97533.94;;;10.28;76.82
78210;BME280;67485;48.816;9.930;2023-02-18T05:31:26;97547.97;;;10.25;76.58
78210;BME280;67485;48.816;9.930;2023-02-18T05:33:52;97532.28;;;10.23;76.89
78210;BME280;67485;48.816;9.930;2023-02-18T05:36:17;97539.19;;;10.28;76.42
78210;BME280;67485;48.816;9.930;2023-02-18T05:38:43;97544.47;;;10.25;76.80
78210;BME280;67485;48.816;9.930;2023-02-18T05:41:08;97542.72;;;10.27;76.65
78210;BME280;67485;48.816;9.930;2023-02-18T05:43:34;97533.13;;;10.26;76.72
78210;BME280;67485;48.816;9.930;2023-02-18T05:46:20;97541.00;;;10.22;76.84
78210;BME280;67485;48.816;9.930;2023-02-18T05:48:46;97526.16;;;10.25;76.68
78210;BME280;67485;48.816;9.930;2023-02-18T05:51:11;97525.28;;;10.22;76.54
78210;BME280;67485;48.816;9.930;2023-02-18T05:53:37;97540.97;;;10.26;76.56
78210;BME280;67485;48.816;9.930;2023-02-18T05:56:03;97532.28;;;10.23;76.93
78210;BME280;67485;48.816;9.930;2023-02-18T05:58:28;97532.28;;;10.23;76.70
78210;BME280;67485;48.816;9.930;2023-02-18T06:00:54;97542.81;;;10.20;77.02
78210;BME280;67485;48.816;9.930;2023-02-18T06:03:20;97534.97;;;10.17;77.26
78210;BME280;67485;48.816;9.930;2023-02-18T06:05:49;97538.47;;;10.18;77.10
78210;BME280;67485;48.816;9.930;2023-02-18T06:08:14;97530.63;;;10.15;77.58
78210;BME280;67485;48.816;9.930;2023-02-18T06:10:40;97529.78;;;10.14;77.87
78210;BME280;67485;48.816;9.930;2023-02-18T06:13:06;97525.38;;;10.16;77.67
78210;BME280;67485;48.816;9.930;2023-02-18T06:15:31;97534.97;;;10.17;78.10
78210;BME280;67485;48.816;9.930;2023-02-18T06:17:57;97541.09;;;10.16;77.99
78210;BME280;67485;48.816;9.930;2023-02-18T06:20:23;97543.72;;;10.15;78.11
78210;BME280;67485;48.816;9.930;2023-02-18T06:22:48;97539.38;;;10.15;78.11
78210;BME280;67485;48.816;9.930;2023-02-18T06:25:14;97542.00;;;10.15;78.53
78210;BME280;67485;48.816;9.930;2023-02-18T06:27:40;97539.38;;;10.15;78.30
78210;BME280;67485;48.816;9.930;2023-02-18T06:30:06;97554.22;;;10.15;78.61
78210;BME280;67485;48.816;9.930;2023-02-18T06:32:31;97550.75;;;10.14;78.67
78210;BME280;67485;48.816;9.930;2023-02-18T06:34:57;97552.47;;;10.14;78.74
78210;BME280;67485;48.816;9.930;2023-02-18T06:37:23;97543.72;;;10.16;78.73
78210;BME280;67485;48.816;9.930;2023-02-18T06:39:48;97544.66;;;10.12;79.08
78210;BME280;67485;48.816;9.930;2023-02-18T06:42:14;97549.03;;;10.12;78.99
78210;BME280;67485;48.816;9.930;2023-02-18T06:44:40;97535.91;;;10.13;78.82
78210;BME280;67485;48.816;9.930;2023-02-18T06:47:06;97535.06;;;10.10;79.32
78210;BME280;67485;48.816;9.930;2023-02-18T06:49:32;97549.03;;;10.10;79.37
78210;BME280;67485;48.816;9.930;2023-02-18T06:51:57;97553.44;;;10.08;79.38
78210;BME280;67485;48.816;9.930;2023-02-18T06:54:23;97562.94;;;10.14;79.23
78210;BME280;67485;48.816;9.930;2023-02-18T06:56:49;97555.00;;;10.21;78.88
78210;BME280;67485;48.816;9.930;2023-02-18T06:59:15;97563.69;;;10.23;78.92
78210;BME280;67485;48.816;9.930;2023-02-18T07:01:41;97555.00;;;10.20;78.99
78210;BME280;67485;48.816;9.930;2023-02-18T07:04:07;97552.38;;;10.21;79.24
78210;BME280;67485;48.816;9.930;2023-02-18T07:06:33;97542.81;;;10.17;78.93
78210;BME280;67485;48.816;9.930;2023-02-18T07:08:59;97538.41;;;10.24;79.00
78210;BME280;67485;48.816;9.930;2023-02-18T07:11:24;97528.75;;;10.26;79.06
78210;BME280;67485;48.816;9.930;2023-02-18T07:13:50;97531.31;;;10.28;78.66
78210;BME280;67485;48.816;9.930;2023-02-18T07:16:16;97526.94;;;10.30;78.81
78210;BME280;67485;48.816;9.930;2023-02-18T07:18:41;97521.75;;;10.27;78.75
78210;BME280;67485;48.816;9.930;2023-02-18T07:21:07;97533.03;;;10.32;78.37
78210;BME280;67485;48.816;9.930;2023-02-18T07:23:33;97519.97;;;10.29;79.04
78210;BME280;67485;48.816;9.930;2023-02-18T07:26:06;97528.63;;;10.34;78.76
78210;BME280;67485;48.816;9.930;2023-02-18T07:28:32;97525.13;;;10.38;78.17
78210;BME280;67485;48.816;9.930;2023-02-18T07:30:58;97527.75;;;10.38;78.01
78210;BME280;67485;48.816;9.930;2023-02-18T07:33:23;97511.94;;;10.43;77.83
78210;BME280;67485;48.816;9.930;2023-02-18T07:35:56;97507.50;;;10.46;77.82
78210;BME280;67485;48.816;9.930;2023-02-18T07:38:23;97504.81;;;10.52;77.46
78210;BME280;67485;48.816;9.930;2023-02-18T07:40:49;97491.66;;;10.56;77.60
78210;BME280;67485;48.816;9.930;2023-02-18T07:43:15;97500.34;;;10.58;76.78
78210;BME280;67485;48.816;9.930;2023-02-18T07:45:41;97511.69;;;10.60;77.09
78210;BME280;67485;48.816;9.930;2023-02-18T07:48:07;97505.47;;;10.67;76.65
78210;BME280;67485;48.816;9.930;2023-02-18T07:50:33;97501.06;;;10.67;76.46
78210;BME280;67485;48.816;9.930;2023-02-18T07:53:03;97496.63;;;10.74;76.37
78210;BME280;67485;48.816;9.930;2023-02-18T07:55:30;97478.19;;;10.77;76.70
78210;BME280;67485;48.816;9.930;2023-02-18T08:00:40;97480.53;;;10.93;75.76
78210;BME280;67485;48.816;9.930;2023-02-18T08:03:05;97483.13;;;10.96;75.74
78210;BME280;67485;48.816;9.930;2023-02-18T08:05:31;97480.50;;;10.96;75.47
78210;BME280;67485;48.816;9.930;2023-02-18T08:07:57;97480.41;;;11.02;75.24
78210;BME280;67485;48.816;9.930;2023-02-18T08:10:22;97490.72;;;11.11;75.11
78210;BME280;67485;48.816;9.930;2023-02-18T08:12:48;97483.75;;;11.10;74.99
78210;BME280;67485;48.816;9.930;2023-02-18T08:15:14;97479.38;;;11.11;74.86
78210;BME280;67485;48.816;9.930;2023-02-18T08:17:40;97482.19;;;11.00;75.75
78210;BME280;67485;48.816;9.930;2023-02-18T08:20:06;97478.59;;;11.04;75.63
78210;BME280;67485;48.816;9.930;2023-02-18T08:22:32;97470.81;;;11.01;75.27
78210;BME280;67485;48.816;9.930;2023-02-18T08:24:57;97475.09;;;11.05;75.08
78210;BME280;67485;48.816;9.930;2023-02-18T08:27:23;97461.19;;;11.00;75.29
78210;BME280;67485;48.816;9.930;2023-02-18T08:29:49;97464.66;;;11.02;74.83
78210;BME280;67485;48.816;9.930;2023-02-18T08:32:15;97467.16;;;11.10;75.04
78210;BME280;67485;48.816;9.930;2023-02-18T08:34:41;97459.31;;;11.08;74.64
78210;BME280;67485;48.816;9.930;2023-02-18T08:37:06;97456.38;;;11.24;74.84
78210;BME280;67485;48.816;9.930;2023-02-18T08:39:33;97458.94;;;11.28;73.90
78210;BME280;67485;48.816;9.930;2023-02-18T08:42:00;97441.38;;;11.30;73.91
78210;BME280;67485;48.816;9.930;2023-02-18T08:44:26;97444.69;;;11.40;73.61
78210;BME280;67485;48.816;9.930;2023-02-18T08:46:52;97434.06;;;11.46;73.11
78210;BME280;67485;48.816;9.930;2023-02-18T08:49:17;97439.97;;;11.59;72.74
78210;BME280;67485;48.816;9.930;2023-02-18T08:51:51;97437.22;;;11.64;72.19
78210;BME280;67485;48.816;9.930;2023-02-18T08:54:16;97440.47;;;11.75;72.12
78210;BME280;67485;48.816;9.930;2023-02-18T08:56:42;97431.44;;;11.89;70.89
78210;BME280;67485;48.816;9.930;2023-02-18T08:59:08;97448.84;;;11.93;71.06
78210;BME280;67485;48.816;9.930;2023-02-18T09:01:34;97433.19;;;11.90;70.71
78210;BME280;67485;48.816;9.930;2023-02-18T09:04:00;97447.91;;;11.98;70.96
78210;BME280;67485;48.816;9.930;2023-02-18T09:06:25;97437.78;;;12.21;70.38
78210;BME280;67485;48.816;9.930;2023-02-18T09:08:51;97424.00;;;12.47;68.81
78210;BME280;67485;48.816;9.930;2023-02-18T09:11:17;97418.34;;;12.62;68.42
78210;BME280;67485;48.816;9.930;2023-02-18T09:13:44;97429.13;;;12.53;68.49
78210;BME280;67485;48.816;9.930;2023-02-18T09:16:13;97422.59;;;12.68;68.41
78210;BME280;67485;48.816;9.930;2023-02-18T09:18:39;97428.22;;;12.53;67.91
78210;BME280;67485;48.816;9.930;2023-02-18T09:21:07;97434.19;;;12.59;68.62
78210;BME280;67485;48.816;9.930;2023-02-18T09:23:34;97426.59;;;12.48;68.30
78210;BME280;67485;48.816;9.930;2023-02-18T09:26:03;97424.84;;;12.47;68.57
78210;BME280;67485;48.816;9.930;2023-02-18T09:28:29;97423.28;;;12.40;68.53
78210;BME280;67485;48.816;9.930;2023-02-18T09:30:55;97429.88;;;12.57;68.00
78210;BME280;67485;48.816;9.930;2023-02-18T09:33:20;97417.16;;;12.74;68.07
78210;BME280;67485;48.816;9.930;2023-02-18T09:35:46;97427.00;;;12.68;67.53
78210;BME280;67485;48.816;9.930;2023-02-18T09:38:15;97427.53;;;12.46;67.89
78210;BME280;67485;48.816;9.930;2023-02-18T09:40:44;97430.66;;;12.26;68.55
78210;BME280;67485;48.816;9.930;2023-02-18T09:43:31;97422.03;;;12.19;69.24
78210;BME280;67485;48.816;9.930;2023-02-18T09:45:58;97411.63;;;12.14;68.95
78210;BME280;67485;48.816;9.930;2023-02-18T09:48:30;97413.00;;;12.31;68.59
78210;BME280;67485;48.816;9.930;2023-02-18T09:50:58;97406.34;;;12.52;68.26
78210;BME280;67485;48.816;9.930;2023-02-18T09:53:24;97405.09;;;12.67;67.95
78210;BME280;67485;48.816;9.930;2023-02-18T09:55:52;97398.69;;;12.77;67.84
78210;BME280;67485;48.816;9.930;2023-02-18T09:58:21;97391.97;;;12.67;67.06
78210;BME280;67485;48.816;9.930;2023-02-18T10:00:52;97388.75;;;12.89;67.21
78210;BME280;67485;48.816;9.930;2023-02-18T10:03:23;97389.50;;;12.94;66.67
78210;BME280;67485;48.816;9.930;2023-02-18T10:05:58;97380.50;;;12.68;66.52
78210;BME280;67485;48.816;9.930;2023-02-18T10:08:33;97385.44;;;12.80;66.21
78210;BME280;67485;48.816;9.930;2023-02-18T10:11:00;97393.75;;;12.65;66.77
78210;BME280;67485;48.816;9.930;2023-02-18T10:13:31;97387.66;;;12.63;66.88
78210;BME280;67485;48.816;9.930;2023-02-18T10:15:58;97394.75;;;12.61;67.19
78210;BME280;67485;48.816;9.930;2023-02-18T10:18:30;97399.28;;;12.89;66.70
78210;BME280;67485;48.816;9.930;2023-02-18T10:21:06;97401.00;;;12.90;66.53
78210;BME280;67485;48.816;9.930;2023-02-18T10:23:37;97402.47;;;13.00;66.21
78210;BME280;67485;48.816;9.930;2023-02-18T10:26:06;97402.50;;;13.63;64.73
78210;BME280;67485;48.816;9.930;2023-02-18T10:28:35;97418.66;;;13.51;64.32
78210;BME280;67485;48.816;9.930;2023-02-18T10:31:08;97405.13;;;13.32;65.35
78210;BME280;67485;48.816;9.930;2023-02-18T10:33:41;97399.47;;;13.45;64.77
78210;BME280;67485;48.816;9.930;2023-02-18T10:36:36;97409.66;;;13.58;64.52
78210;BME280;67485;48.816;9.930;2023-02-18T10:44:53;97400.72;;;13.32;65.16
78210;BME280;67485;48.816;9.930;2023-02-18T10:50:12;97395.47;;;14.47;62.01
78210;BME280;67485;48.816;9.930;2023-02-18T10:52:44;97397.59;;;14.37;61.56
78210;BME280;67485;48.816;9.930;2023-02-18T10:55:13;97383.25;;;14.18;62.80
78210;BME280;67485;48.816;9.930;2023-02-18T10:57:53;97396.19;;;14.25;61.90
78210;BME280;67485;48.816;9.930;2023-02-18T11:00:24;97402.81;;;14.10;63.32
78210;BME280;67485;48.816;9.930;2023-02-18T11:05:35;97387.59;;;14.99;60.42
78210;BME280;67485;48.816;9.930;2023-02-18T11:08:01;97383.47;;;16.11;57.60
78210;BME280;67485;48.816;9.930;2023-02-18T11:10:33;97396.38;;;15.25;59.53
78210;BME280;67485;48.816;9.930;2023-02-18T11:13:02;97390.25;;;14.74;60.93
78210;BME280;67485;48.816;9.930;2023-02-18T11:15:30;97398.09;;;14.49;61.31
78210;BME280;67485;48.816;9.930;2023-02-18T11:17:58;97387.19;;;14.04;62.52
78210;BME280;67485;48.816;9.930;2023-02-18T11:20:37;97383.69;;;13.75;63.18
78210;BME280;67485;48.816;9.930;2023-02-18T11:25:34;97373.69;;;13.87;63.66
78210;BME280;67485;48.816;9.930;2023-02-18T11:30:48;97355.72;;;13.71;63.10
78210;BME280;67485;48.816;9.930;2023-02-18T11:35:52;97329.41;;;13.98;62.62
78210;BME280;67485;48.816;9.930;2023-02-18T11:38:34;97323.88;;;14.07;62.19
78210;BME280;67485;48.816;9.930;2023-02-18T11:41:09;97327.91;;;14.18;61.73
78210;BME280;67485;48.816;9.930;2023-02-18T11:43:40;97330.22;;;14.27;61.43
78210;BME280;67485;48.816;9.930;2023-02-18T11:46:16;97318.72;;;14.30;61.16
78210;BME280;67485;48.816;9.930;2023-02-18T11:48:43;97314.69;;;14.44;59.80
78210;BME280;67485;48.816;9.930;2023-02-18T11:51:20;97318.66;;;14.58;59.97
78210;BME280;67485;48.816;9.930;2023-02-18T11:54:02;97318.50;;;14.37;60.27
78210;BME280;67485;48.816;9.930;2023-02-18T11:56:31;97315.06;;;14.08;60.90
78210;BME280;67485;48.816;9.930;2023-02-18T11:58:57;97319.25;;;13.86;61.26
78210;BME280;67485;48.816;9.930;2023-02-18T12:06:44;97299.69;;;14.47;59.79
78210;BME280;67485;48.816;9.930;2023-02-18T12:09:57;97293.13;;;15.09;58.42
78210;BME280;67485;48.816;9.930;2023-02-18T12:12:30;97296.84;;;15.27;57.74
78210;BME280;67485;48.816;9.930;2023-02-18T12:14:58;97288.97;;;15.26;57.28
78210;BME280;67485;48.816;9.930;2023-02-18T12:22:44;97316.31;;;14.75;58.27
78210;BME280;67485;48.816;9.930;2023-02-18T12:25:24;97305.88;;;14.72;58.74
78210;BME280;67485;48.816;9.930;2023-02-18T12:42:35;97281.56;;;14.37;59.50
78210;BME280;67485;48.816;9.930;2023-02-18T12:45:29;97293.66;;;14.18;59.86
78210;BME280;67485;48.816;9.930;2023-02-18T12:56:02;97288.94;;;14.27;59.31
78210;BME280;67485;48.816;9.930;2023-02-18T13:01:29;97288.91;;;14.02;60.25
78210;BME280;67485;48.816;9.930;2023-02-18T13:09:48;97290.00;;;13.95;60.82
78210;BME280;67485;48.816;9.930;2023-02-18T13:14:55;97284.31;;;13.81;60.88
78210;BME280;67485;48.816;9.930;2023-02-18T13:17:26;97280.69;;;13.85;61.22
78210;BME280;67485;48.816;9.930;2023-02-18T13:20:21;97281.78;;;13.77;61.15
78210;BME280;67485;48.816;9.930;2023-02-18T13:22:49;97285.28;;;13.78;61.11
78210;BME280;67485;48.816;9.930;2023-02-18T13:25:16;97289.56;;;13.81;60.93
78210;BME280;67485;48.816;9.930;2023-02-18T13:30:33;97286.84;;;13.84;60.21
78210;BME280;67485;48.816;9.930;2023-02-18T13:33:08;97284.94;;;13.89;60.09
78210;BME280;67485;48.816;9.930;2023-02-18T13:35:53;97278.44;;;13.72;60.06
78210;BME280;67485;48.816;9.930;2023-02-18T13:41:05;97262.00;;;13.64;59.48
78210;BME280;67485;48.816;9.930;2023-02-18T13:43:33;97260.47;;;13.57;59.50
78210;BME280;67485;48.816;9.930;2023-02-18T13:46:13;97257.56;;;13.66;59.43
78210;BME280;67485;48.816;9.930;2023-02-18T13:49:03;97262.13;;;13.61;59.45
78210;BME280;67485;48.816;9.930;2023-02-18T13:51:40;97260.84;;;13.44;59.56
78210;BME280;67485;48.816;9.930;2023-02-18T13:54:15;97256.09;;;13.57;59.43
78210;BME280;67485;48.816;9.930;2023-02-18T13:56:46;97259.44;;;13.62;59.22
78210;BME280;67485;48.816;9.930;2023-02-18T13:59:22;97259.63;;;13.56;58.70
78210;BME280;67485;48.816;9.930;2023-02-18T14:01:51;97262.59;;;13.45;58.87
78210;BME280;67485;48.816;9.930;2023-02-18T14:07:25;97253.91;;;13.42;59.21
78210;BME280;67485;48.816;9.930;2023-02-18T14:09:54;97245.75;;;13.51;59.10
78210;BME280;67485;48.816;9.930;2023-02-18T14:12:39;97255.13;;;13.60;58.14
78210;BME280;67485;48.816;9.930;2023-02-18T14:25:50;97242.28;;;13.49;57.70
78210;BME280;67485;48.816;9.930;2023-02-18T14:31:22;97235.41;;;13.45;58.49
78210;BME280;67485;48.816;9.930;2023-02-18T14:36:45;97251.34;;;13.40;58.15
78210;BME280;67485;48.816;9.930;2023-02-18T14:42:33;97260.28;;;13.35;57.27
78210;BME280;67485;48.816;9.930;2023-02-18T14:47:38;97247.31;;;13.27;57.35
78210;BME280;67485;48.816;9.930;2023-02-18T14:50:17;97250.34;;;13.14;57.82
78210;BME280;67485;48.816;9.930;2023-02-18T14:52:56;97245.75;;;13.21;58.19
78210;BME280;67485;48.816;9.930;2023-02-18T14:55:26;97243.13;;;13.21;57.87
78210;BME280;67485;48.816;9.930;2023-02-18T14:58:06;97221.22;;;13.21;57.30
78210;BME280;67485;48.816;9.930;2023-02-18T15:00:35;97228.94;;;13.25;58.11
78210;BME280;67485;48.816;9.930;2023-02-18T15:03:12;97225.28;;;13.31;58.03
78210;BME280;67485;48.816;9.930;2023-02-18T15:05:38;97233.38;;;13.25;57.62
78210;BME280;67485;48.816;9.930;2023-02-18T15:08:06;97224.75;;;13.20;57.44
78210;BME280;67485;48.816;9.930;2023-02-18T15:10:50;97219.75;;;13.10;57.26
78210;BME280;67485;48.816;9.930;2023-02-18T15:13:33;97233.81;;;13.09;57.78
78210;BME280;67485;48.816;9.930;2023-02-18T15:16:06;97235.69;;;13.06;57.95